createdAt,value
2023-08-24T00:00:42.856Z,7.70
2023-08-24T00:03:10.763Z,8.55
2023-08-24T00:05:39.644Z,8.07
2023-08-24T00:08:07.505Z,8.02
2023-08-24T00:10:34.882Z,7.32
2023-08-24T00:13:02.431Z,7.97
2023-08-24T00:15:31.555Z,8.38
2023-08-24T00:17:59.085Z,7.65
2023-08-24T00:20:28.192Z,8.05
2023-08-24T00:22:55.654Z,6.55
2023-08-24T00:25:23.179Z,7.32
2023-08-24T00:27:51.148Z,8.20
2023-08-24T00:30:18.871Z,7.60
2023-08-24T00:32:47.950Z,7.47
2023-08-24T00:35:15.385Z,8.45
2023-08-24T00:37:42.808Z,7.32
2023-08-24T00:40:11.122Z,7.30
2023-08-24T00:42:39.619Z,7.38
2023-08-24T00:45:08.441Z,6.63
2023-08-24T00:47:35.996Z,7.57
2023-08-24T00:50:05.370Z,6.75
2023-08-24T00:52:33.449Z,6.97
2023-08-24T00:55:01.211Z,6.68
2023-08-24T00:57:28.982Z,7.07
2023-08-24T00:59:56.863Z,7.35
2023-08-24T01:02:24.319Z,6.65
2023-08-24T01:04:54.383Z,7.05
2023-08-24T01:07:23.199Z,7.65
2023-08-24T01:09:50.923Z,6.90
2023-08-24T01:12:22.194Z,6.78
2023-08-24T01:14:52.648Z,6.80
2023-08-24T01:17:22.711Z,7.03
2023-08-24T01:19:50.193Z,6.75
2023-08-24T01:22:22.612Z,7.10
2023-08-24T01:24:55.237Z,6.95
2023-08-24T01:27:24.418Z,6.88
2023-08-24T01:29:53.606Z,7.05
2023-08-24T01:32:21.087Z,6.82
2023-08-24T01:34:48.660Z,6.78
2023-08-24T01:37:16.207Z,7.30
2023-08-24T01:39:45.492Z,7.10
2023-08-24T01:42:13.518Z,7.47
2023-08-24T01:44:44.455Z,8.07
2023-08-24T01:47:14.262Z,7.60
2023-08-24T01:49:42.889Z,7.25
2023-08-24T01:52:11.556Z,6.82
2023-08-24T01:54:39.097Z,6.32
2023-08-24T01:57:07.027Z,6.38
2023-08-24T01:59:34.569Z,6.63
2023-08-24T02:02:04.023Z,5.93
2023-08-24T02:04:31.507Z,6.03
2023-08-24T02:06:59.166Z,5.57
2023-08-24T02:09:26.734Z,6.20
2023-08-24T02:11:54.147Z,5.90
2023-08-24T02:14:21.600Z,6.55
2023-08-24T02:16:49.179Z,6.10
2023-08-24T02:19:17.990Z,6.50
2023-08-24T02:21:45.448Z,6.63
2023-08-24T02:24:12.958Z,6.82
2023-08-24T02:26:40.419Z,5.72
2023-08-24T02:29:08.108Z,5.80
2023-08-24T02:31:35.691Z,6.60
2023-08-24T02:34:03.547Z,6.40
2023-08-24T02:36:34.114Z,6.03
2023-08-24T02:39:01.898Z,6.63
2023-08-24T02:41:29.488Z,7.22
2023-08-24T02:43:57.882Z,6.20
2023-08-24T02:46:25.327Z,6.63
2023-08-24T02:48:52.778Z,7.50
2023-08-24T02:51:24.281Z,7.15
2023-08-24T02:53:53.072Z,7.28
2023-08-24T02:56:22.086Z,6.55
2023-08-24T02:58:49.602Z,6.10
2023-08-24T03:01:17.083Z,6.95
2023-08-24T03:03:44.578Z,6.38
2023-08-24T03:06:12.066Z,6.57
2023-08-24T03:08:39.507Z,5.68
2023-08-24T03:11:09.055Z,5.95
2023-08-24T03:13:38.162Z,6.40
2023-08-24T03:16:06.057Z,5.90
2023-08-24T03:18:34.010Z,6.55
2023-08-24T03:21:04.055Z,6.28
2023-08-24T03:23:34.271Z,6.32
2023-08-24T03:26:01.741Z,6.65
2023-08-24T03:28:30.819Z,7.32
2023-08-24T03:30:58.416Z,6.55
2023-08-24T03:33:26.425Z,7.75
2023-08-24T03:35:53.886Z,7.43
2023-08-24T03:38:21.295Z,8.20
2023-08-24T03:40:48.736Z,7.00
2023-08-24T03:43:16.176Z,8.00
2023-08-24T03:45:45.366Z,6.75
2023-08-24T03:48:12.888Z,6.47
2023-08-24T03:50:40.344Z,6.82
2023-08-24T03:53:08.399Z,6.15
2023-08-24T03:55:35.942Z,6.45
2023-08-24T03:58:03.600Z,6.53
2023-08-24T04:00:32.011Z,6.72
2023-08-24T04:03:03.539Z,6.55
2023-08-24T04:05:31.136Z,6.38
2023-08-24T04:07:58.577Z,6.10
2023-08-24T04:10:26.484Z,6.10
2023-08-24T04:12:54.007Z,7.55
2023-08-24T04:15:21.916Z,6.20
2023-08-24T04:17:49.644Z,7.00
2023-08-24T04:20:19.788Z,7.05
2023-08-24T04:22:47.468Z,6.93
2023-08-24T04:25:14.988Z,7.55
2023-08-24T04:27:42.705Z,8.23
2023-08-24T04:30:12.901Z,8.40
2023-08-24T04:32:40.486Z,7.95
2023-08-24T04:35:09.024Z,8.05
2023-08-24T04:37:38.412Z,8.00
2023-08-24T04:40:08.247Z,9.13
2023-08-24T04:42:36.099Z,8.15
2023-08-24T04:45:03.608Z,8.57
2023-08-24T04:47:31.046Z,8.02
2023-08-24T04:49:59.702Z,7.93
2023-08-24T04:52:27.127Z,8.43
2023-08-24T04:54:55.941Z,7.57
2023-08-24T04:57:25.384Z,7.25
2023-08-24T04:59:53.283Z,7.28
2023-08-24T05:02:20.716Z,6.60
2023-08-24T05:04:49.786Z,6.88
2023-08-24T05:07:17.332Z,7.40
2023-08-24T05:09:44.753Z,7.07
2023-08-24T05:12:13.690Z,6.78
2023-08-24T05:14:41.106Z,7.05
2023-08-24T05:17:08.555Z,7.15
2023-08-24T05:19:35.992Z,6.95
2023-08-24T05:22:03.736Z,6.03
2023-08-24T05:24:31.361Z,6.30
2023-08-24T05:26:58.850Z,6.38
2023-08-24T05:29:27.813Z,6.30
2023-08-24T05:31:55.301Z,6.32
2023-08-24T05:34:22.730Z,5.47
2023-08-24T05:36:50.270Z,5.75
2023-08-24T05:39:17.660Z,5.93
2023-08-24T05:41:45.092Z,5.43
2023-08-24T05:44:12.519Z,5.82
2023-08-24T05:46:41.381Z,5.28
2023-08-24T05:49:08.757Z,5.32
2023-08-24T05:51:36.266Z,5.45
2023-08-24T05:54:03.897Z,5.20
2023-08-24T05:56:31.505Z,5.13
2023-08-24T05:58:59.452Z,4.20
2023-08-24T06:01:26.929Z,5.18
2023-08-24T06:03:55.940Z,4.07
2023-08-24T06:06:23.465Z,4.00
2023-08-24T06:08:50.874Z,3.83
2023-08-24T06:11:18.712Z,3.90
2023-08-24T06:13:46.466Z,3.55
2023-08-24T06:16:14.118Z,3.78
2023-08-24T06:18:46.388Z,3.35
2023-08-24T06:21:31.536Z,3.67
2023-08-24T06:23:59.343Z,3.13
2023-08-24T06:26:28.506Z,3.45
2023-08-24T06:28:56.953Z,2.47
2023-08-24T06:31:24.702Z,2.88
2023-08-24T06:33:52.487Z,2.80
2023-08-24T06:36:21.793Z,2.42
2023-08-24T06:38:49.660Z,2.50
2023-08-24T06:41:17.766Z,2.60
2023-08-24T06:43:45.908Z,2.40
2023-08-24T06:46:13.846Z,2.50
2023-08-24T06:48:43.093Z,3.15
2023-08-24T06:51:10.810Z,2.92
2023-08-24T06:53:39.994Z,2.50
2023-08-24T06:56:07.922Z,2.70
2023-08-24T06:58:37.138Z,2.97
2023-08-24T07:01:07.244Z,2.08
2023-08-24T07:03:35.456Z,3.58
2023-08-24T07:06:07.834Z,3.00
2023-08-24T07:08:38.217Z,2.53
2023-08-24T07:11:08.013Z,2.88
2023-08-24T07:13:35.910Z,3.15
2023-08-24T07:16:06.677Z,2.90
2023-08-24T07:18:34.608Z,3.17
2023-08-24T07:21:02.514Z,3.22
2023-08-24T07:23:30.738Z,3.35
2023-08-24T07:26:00.423Z,3.25
2023-08-24T07:28:30.023Z,3.95
2023-08-24T07:30:58.163Z,3.58
2023-08-24T07:33:32.166Z,3.33
2023-08-24T07:36:00.249Z,3.97
2023-08-24T07:38:33.943Z,3.83
2023-08-24T07:41:01.684Z,3.38
2023-08-24T07:43:31.609Z,3.40
2023-08-24T07:45:59.411Z,3.15
2023-08-24T07:48:27.608Z,2.85
2023-08-24T07:55:15.336Z,5.20
2023-08-24T07:57:43.171Z,22.38
2023-08-24T08:00:14.677Z,6.22
2023-08-24T08:02:42.190Z,3.72
2023-08-24T08:05:11.335Z,5.28
2023-08-24T08:07:39.002Z,5.40
2023-08-24T08:10:07.021Z,3.63
2023-08-24T08:12:37.261Z,3.88
2023-08-24T08:15:05.062Z,3.60
2023-08-24T08:17:34.523Z,3.50
2023-08-24T08:20:03.364Z,5.10
2023-08-24T08:22:30.972Z,4.13
2023-08-24T08:24:59.020Z,3.63
2023-08-24T08:27:26.512Z,4.53
2023-08-24T08:29:53.956Z,3.65
2023-08-24T08:32:21.401Z,4.88
2023-08-24T08:34:50.187Z,2.78
2023-08-24T08:37:17.667Z,4.13
2023-08-24T08:39:45.186Z,3.20
2023-08-24T08:42:13.493Z,3.05
2023-08-24T08:44:41.175Z,3.55
2023-08-24T08:47:09.316Z,4.20
2023-08-24T08:49:37.597Z,3.22
2023-08-24T08:52:07.318Z,3.20
2023-08-24T08:54:34.909Z,3.00
2023-08-24T08:57:02.760Z,3.28
2023-08-24T08:59:31.414Z,3.05
2023-08-24T09:02:01.700Z,2.40
2023-08-24T09:04:29.558Z,2.92
2023-08-24T09:06:57.810Z,3.35
2023-08-24T09:09:27.153Z,5.53
2023-08-24T09:11:54.877Z,4.45
2023-08-24T09:14:22.631Z,5.35
2023-08-24T09:16:50.095Z,5.90
2023-08-24T09:19:17.568Z,13.57
2023-08-24T09:21:44.988Z,4.18
2023-08-24T09:24:12.920Z,3.88
2023-08-24T09:26:44.363Z,4.47
2023-08-24T09:29:15.358Z,2.33
2023-08-24T09:31:44.901Z,3.47
2023-08-24T09:34:12.491Z,2.75
2023-08-24T09:36:40.685Z,2.47
2023-08-24T09:39:09.376Z,6.95
2023-08-24T09:41:40.593Z,3.42
2023-08-24T09:44:09.809Z,3.78
2023-08-24T09:46:39.156Z,3.08
2023-08-24T09:49:07.140Z,3.15
2023-08-24T09:51:35.668Z,2.92
2023-08-24T09:54:05.780Z,4.13
2023-08-24T09:56:34.813Z,5.95
2023-08-24T09:59:02.583Z,3.65
2023-08-24T10:01:31.752Z,3.20
2023-08-24T10:03:59.737Z,3.30
2023-08-24T10:06:30.462Z,6.28
2023-08-24T10:09:05.165Z,2.92
2023-08-24T10:11:33.864Z,3.47
2023-08-24T10:14:07.962Z,3.30
2023-08-24T10:16:37.674Z,3.20
2023-08-24T10:19:05.705Z,3.35
2023-08-24T10:21:33.414Z,2.50
2023-08-24T10:24:01.135Z,3.50
2023-08-24T10:26:28.627Z,2.97
2023-08-24T10:28:57.124Z,3.38
2023-08-24T10:31:25.203Z,4.00
2023-08-24T10:33:54.822Z,3.08
2023-08-24T10:36:23.293Z,2.63
2023-08-24T10:38:51.052Z,3.15
2023-08-24T10:41:18.517Z,2.67
2023-08-24T10:43:50.747Z,3.13
2023-08-24T10:46:18.854Z,2.80
2023-08-24T10:49:00.824Z,3.33
2023-08-24T10:51:31.446Z,3.28
2023-08-24T10:53:59.919Z,3.85
2023-08-24T10:56:32.101Z,2.53
2023-08-24T10:59:20.734Z,3.03
2023-08-24T11:01:56.796Z,3.83
2023-08-24T11:04:26.589Z,3.85
2023-08-24T11:06:55.391Z,3.28
2023-08-24T11:09:23.943Z,3.55
2023-08-24T11:11:58.625Z,2.95
2023-08-24T11:14:27.727Z,3.05
2023-08-24T11:16:55.807Z,3.10
2023-08-24T11:19:23.512Z,3.33
2023-08-24T11:21:53.206Z,3.70
2023-08-24T11:24:20.735Z,3.03
2023-08-24T11:26:49.489Z,2.97
2023-08-24T11:29:19.293Z,2.92
2023-08-24T11:31:46.829Z,3.03
2023-08-24T11:34:16.756Z,2.83
2023-08-24T11:36:44.744Z,3.50
2023-08-24T11:39:19.171Z,3.25
2023-08-24T11:41:46.713Z,3.53
2023-08-24T11:44:26.984Z,3.00
2023-08-24T11:46:58.019Z,3.30
2023-08-24T11:49:25.685Z,3.63
2023-08-24T11:51:55.614Z,3.33
2023-08-24T11:54:26.550Z,2.95
2023-08-24T11:56:54.092Z,3.92
2023-08-24T11:59:22.898Z,4.20
2023-08-24T12:01:50.388Z,3.47
2023-08-24T12:04:17.823Z,3.53
2023-08-24T12:06:45.359Z,3.10
2023-08-24T12:09:12.917Z,3.60
2023-08-24T12:11:41.629Z,3.80
2023-08-24T12:14:11.267Z,3.60
2023-08-24T12:16:39.088Z,3.70
2023-08-24T12:19:09.335Z,3.17
2023-08-24T12:21:36.874Z,3.67
2023-08-24T12:24:06.720Z,3.33
2023-08-24T12:26:35.911Z,3.40
2023-08-24T12:29:06.403Z,3.63
2023-08-24T12:31:34.409Z,3.50
2023-08-24T12:34:03.381Z,2.97
2023-08-24T12:36:30.937Z,3.28
2023-08-24T12:38:59.674Z,3.25
2023-08-24T12:41:27.110Z,3.10
2023-08-24T12:43:54.625Z,2.90
2023-08-24T12:46:23.540Z,3.20
2023-08-24T12:48:52.023Z,4.18
2023-08-24T12:51:21.484Z,3.47
2023-08-24T12:53:48.904Z,3.03
2023-08-24T12:56:16.335Z,4.53
2023-08-24T12:58:44.004Z,3.72
2023-08-24T13:01:13.248Z,4.28
2023-08-24T13:03:42.389Z,3.50
2023-08-24T13:06:23.375Z,3.42
2023-08-24T13:08:51.590Z,3.28
2023-08-24T13:11:18.987Z,2.78
2023-08-24T13:13:46.724Z,2.80
2023-08-24T13:16:14.487Z,2.97
2023-08-24T13:18:44.050Z,2.90
2023-08-24T13:21:11.642Z,4.70
2023-08-24T13:23:39.050Z,2.92
2023-08-24T13:26:06.509Z,2.50
2023-08-24T13:28:34.085Z,2.45
2023-08-24T13:31:01.687Z,2.78
2023-08-24T13:33:29.442Z,2.42
2023-08-24T13:35:58.236Z,2.40
2023-08-24T13:38:25.675Z,2.75
2023-08-24T13:40:53.104Z,3.50
2023-08-24T13:43:21.326Z,2.70
2023-08-24T13:45:48.824Z,2.50
2023-08-24T13:48:17.141Z,2.78
2023-08-24T13:50:51.367Z,2.40
2023-08-24T13:53:20.328Z,2.25
2023-08-24T13:55:47.875Z,2.30
2023-08-24T13:58:15.569Z,2.33
2023-08-24T14:00:43.074Z,2.50
2023-08-24T14:03:10.704Z,2.55
2023-08-24T14:05:40.646Z,2.72
2023-08-24T14:08:09.154Z,2.20
2023-08-24T14:10:37.966Z,2.47
2023-08-24T14:13:05.564Z,2.33
2023-08-24T14:15:33.055Z,2.53
2023-08-24T14:18:00.589Z,2.72
2023-08-24T14:20:28.776Z,2.42
2023-08-24T14:22:56.298Z,2.40
2023-08-24T14:25:23.759Z,2.33
2023-08-24T14:28:04.317Z,2.40
2023-08-24T14:30:33.525Z,2.80
2023-08-24T14:33:01.061Z,3.63
2023-08-24T14:35:30.359Z,2.72
2023-08-24T14:37:58.887Z,2.80
2023-08-24T14:40:26.357Z,2.70
2023-08-24T14:42:56.286Z,3.15
2023-08-24T14:45:23.954Z,2.60
2023-08-24T14:47:52.132Z,2.88
2023-08-24T14:50:19.799Z,2.90
2023-08-24T14:52:47.442Z,2.90
2023-08-24T14:55:15.086Z,2.40
2023-08-24T14:57:42.576Z,2.63
2023-08-24T15:00:12.212Z,2.42
2023-08-24T15:02:40.821Z,2.30
2023-08-24T15:05:08.703Z,2.42
2023-08-24T15:07:36.203Z,2.45
2023-08-24T15:10:04.395Z,2.45
2023-08-24T15:12:50.759Z,2.38
2023-08-24T15:15:19.729Z,2.60
2023-08-24T15:17:48.174Z,3.08
2023-08-24T15:20:17.708Z,2.60
2023-08-24T15:22:45.165Z,2.80
2023-08-24T15:25:12.631Z,2.80
2023-08-24T15:27:40.092Z,2.95
2023-08-24T15:30:08.908Z,2.60
2023-08-24T15:32:37.909Z,2.70
2023-08-24T15:35:06.180Z,2.40
2023-08-24T15:37:33.632Z,2.50
2023-08-24T15:40:01.699Z,3.00
2023-08-24T15:42:29.235Z,2.50
2023-08-24T15:44:57.385Z,2.88
2023-08-24T15:47:24.926Z,2.70
2023-08-24T15:49:53.800Z,2.67
2023-08-24T15:52:21.240Z,2.40
2023-08-24T15:54:48.900Z,2.72
2023-08-24T15:57:16.439Z,2.95
2023-08-24T15:59:44.036Z,3.10
2023-08-24T16:02:11.454Z,3.05
2023-08-24T16:04:38.925Z,3.20
2023-08-24T16:07:07.710Z,2.95
2023-08-24T16:09:35.259Z,3.65
2023-08-24T16:12:02.843Z,3.10
2023-08-24T16:14:30.394Z,3.10
2023-08-24T16:16:57.943Z,3.45
2023-08-24T16:19:25.522Z,3.75
2023-08-24T16:21:53.149Z,2.83
2023-08-24T16:24:21.913Z,3.53
2023-08-24T16:26:49.346Z,4.25
2023-08-24T16:29:16.819Z,3.25
2023-08-24T16:31:44.238Z,4.18
2023-08-24T16:34:11.781Z,3.10
2023-08-24T16:36:41.882Z,3.10
2023-08-24T16:39:09.435Z,3.78
2023-08-24T16:41:38.273Z,3.50
2023-08-24T16:44:05.727Z,3.85
2023-08-24T16:46:33.269Z,3.25
2023-08-24T16:49:00.872Z,3.30
2023-08-24T16:51:28.383Z,3.20
2023-08-24T16:53:55.968Z,3.17
2023-08-24T16:56:23.504Z,3.20
2023-08-24T16:58:52.498Z,3.22
2023-08-24T17:01:20.031Z,3.25
2023-08-24T17:03:47.583Z,3.05
2023-08-24T17:06:15.036Z,3.63
2023-08-24T17:08:42.490Z,3.40
2023-08-24T17:11:09.950Z,3.08
2023-08-24T17:13:37.385Z,3.72
2023-08-24T17:16:06.534Z,3.45
2023-08-24T17:18:35.059Z,3.58
2023-08-24T17:21:04.102Z,2.90
2023-08-24T17:23:31.550Z,3.67
2023-08-24T17:25:58.952Z,2.83
2023-08-24T17:28:26.494Z,3.72
2023-08-24T17:30:53.995Z,3.60
2023-08-24T17:33:22.903Z,3.83
2023-08-24T17:35:51.340Z,5.25
2023-08-24T17:38:21.359Z,3.80
2023-08-24T17:40:48.812Z,3.78
2023-08-24T17:43:16.251Z,3.92
2023-08-24T17:45:44.665Z,4.50
2023-08-24T17:48:12.129Z,4.22
2023-08-24T17:50:40.890Z,3.80
2023-08-24T17:53:08.354Z,3.60
2023-08-24T17:55:36.696Z,4.40
2023-08-24T17:58:04.439Z,5.63
2023-08-24T18:00:31.899Z,4.32
2023-08-24T18:02:59.518Z,6.63
2023-08-24T18:05:27.061Z,7.32
2023-08-24T18:07:55.807Z,6.35
2023-08-24T18:10:23.243Z,6.63
2023-08-24T18:12:50.774Z,6.82
2023-08-24T18:15:28.332Z,5.47
2023-08-24T18:17:56.759Z,5.78
2023-08-24T18:20:24.318Z,5.55
2023-08-24T18:22:51.815Z,4.72
2023-08-24T18:25:20.562Z,4.75
2023-08-24T18:27:47.969Z,4.22
2023-08-24T18:30:15.535Z,4.03
2023-08-24T18:32:42.969Z,3.88
2023-08-24T18:35:10.611Z,4.32
2023-08-24T18:37:38.157Z,5.63
2023-08-24T18:40:07.133Z,4.32
2023-08-24T18:42:36.026Z,5.20
2023-08-24T18:45:03.766Z,6.32
2023-08-24T18:47:31.296Z,4.20
2023-08-24T18:49:58.976Z,4.45
2023-08-24T18:52:26.510Z,4.45
2023-08-24T18:54:53.975Z,3.33
2023-08-24T18:57:21.738Z,3.15
2023-08-24T18:59:50.777Z,3.88
2023-08-24T19:02:19.529Z,3.58
2023-08-24T19:04:47.140Z,4.28
2023-08-24T19:07:14.643Z,3.67
2023-08-24T19:09:42.679Z,4.30
2023-08-24T19:12:10.117Z,4.55
2023-08-24T19:14:37.635Z,4.47
2023-08-24T19:17:06.732Z,3.65
2023-08-24T19:19:34.149Z,4.10
2023-08-24T19:22:01.688Z,4.07
2023-08-24T19:24:29.174Z,3.78
2023-08-24T19:26:56.760Z,4.00
2023-08-24T19:29:25.549Z,3.45
2023-08-24T19:31:53.033Z,3.78
2023-08-24T19:34:21.879Z,3.75
2023-08-24T19:36:49.376Z,3.95
2023-08-24T19:39:16.869Z,4.32
2023-08-24T19:41:58.330Z,4.50
2023-08-24T19:44:27.519Z,3.80
2023-08-24T19:46:55.229Z,3.58
2023-08-24T19:49:25.105Z,4.03
2023-08-24T19:51:52.849Z,3.75
2023-08-24T19:54:20.458Z,3.58
2023-08-24T19:56:47.913Z,4.63
2023-08-24T19:59:15.424Z,3.97
2023-08-24T20:02:02.499Z,4.05
2023-08-24T20:05:05.930Z,4.50
2023-08-24T20:07:48.812Z,5.15
2023-08-24T20:10:20.762Z,4.90
2023-08-24T20:12:52.865Z,4.32
2023-08-24T20:15:20.657Z,4.18
2023-08-24T20:17:49.201Z,4.57
2023-08-24T20:20:19.253Z,4.60
2023-08-24T20:22:47.220Z,4.50
2023-08-24T20:25:14.867Z,4.40
2023-08-24T20:27:42.716Z,4.45
2023-08-24T20:30:10.683Z,3.90
2023-08-24T20:32:38.153Z,4.20
2023-08-24T20:35:06.031Z,4.07
2023-08-24T20:37:34.851Z,3.83
2023-08-24T20:40:02.811Z,4.78
2023-08-24T20:42:30.234Z,5.28
2023-08-24T20:44:57.772Z,4.00
2023-08-24T20:47:25.832Z,8.85
2023-08-24T20:49:53.659Z,4.40
2023-08-24T20:52:22.103Z,3.88
2023-08-24T20:54:52.033Z,4.20
2023-08-24T20:57:19.541Z,4.20
2023-08-24T20:59:46.967Z,4.13
2023-08-24T21:02:14.454Z,5.13
2023-08-24T21:04:42.038Z,4.15
2023-08-24T21:07:09.620Z,4.15
2023-08-24T21:09:37.166Z,5.05
2023-08-24T21:12:06.457Z,4.75
2023-08-24T21:14:33.971Z,4.85
2023-08-24T21:17:01.535Z,4.80
2023-08-24T21:19:28.981Z,5.03
2023-08-24T21:21:56.548Z,5.13
2023-08-24T21:24:24.046Z,4.85
2023-08-24T21:26:51.536Z,5.38
2023-08-24T21:29:20.576Z,5.20
2023-08-24T21:31:48.084Z,5.80
2023-08-24T21:34:17.391Z,5.00
2023-08-24T21:36:45.024Z,5.38
2023-08-24T21:39:12.786Z,4.90
2023-08-24T21:41:40.243Z,5.47
2023-08-24T21:44:07.735Z,5.57
2023-08-24T21:46:36.692Z,5.30
2023-08-24T21:49:06.848Z,5.38
2023-08-24T21:51:35.891Z,5.20
2023-08-24T21:54:03.369Z,5.40
2023-08-24T21:56:30.899Z,5.70
2023-08-24T21:58:58.701Z,5.20
2023-08-24T22:01:26.228Z,5.28
2023-08-24T22:03:55.064Z,5.20
2023-08-24T22:06:26.248Z,5.18
2023-08-24T22:08:53.787Z,5.30
2023-08-24T22:11:21.311Z,4.80
2023-08-24T22:13:48.817Z,5.22
2023-08-24T22:16:16.332Z,5.63
2023-08-24T22:18:43.859Z,5.72
2023-08-24T22:21:12.803Z,5.40
2023-08-24T22:23:40.351Z,5.72
2023-08-24T22:26:08.248Z,5.68
2023-08-24T22:28:35.672Z,5.50
2023-08-24T22:31:03.263Z,5.45
2023-08-24T22:33:33.940Z,5.25
2023-08-24T22:36:01.450Z,6.07
2023-08-24T22:38:32.164Z,5.90
2023-08-24T22:40:59.936Z,6.00
2023-08-24T22:43:27.443Z,5.95
2023-08-24T22:45:54.905Z,5.63
2023-08-24T22:48:22.384Z,6.50
2023-08-24T22:50:49.834Z,6.40
2023-08-24T22:53:17.289Z,6.32
2023-08-24T22:55:47.035Z,5.88
2023-08-24T22:58:14.545Z,5.50
2023-08-24T23:00:41.949Z,6.10
2023-08-24T23:03:09.450Z,5.72
2023-08-24T23:05:37.951Z,5.65
2023-08-24T23:08:06.909Z,5.78
2023-08-24T23:10:34.403Z,5.90
2023-08-24T23:13:03.243Z,5.35
2023-08-24T23:15:30.742Z,5.70
2023-08-24T23:17:58.428Z,5.35
2023-08-24T23:20:26.900Z,5.40
2023-08-24T23:22:54.420Z,5.35
2023-08-24T23:25:21.935Z,5.80
2023-08-24T23:27:50.263Z,5.93
2023-08-24T23:30:19.396Z,5.97
2023-08-24T23:32:46.974Z,5.93
2023-08-24T23:35:15.039Z,5.80
2023-08-24T23:37:42.524Z,5.57
2023-08-24T23:40:11.370Z,6.55
2023-08-24T23:42:39.654Z,5.93
2023-08-24T23:45:07.839Z,5.80
2023-08-24T23:47:36.622Z,6.15
2023-08-24T23:50:04.685Z,6.00
2023-08-24T23:52:32.464Z,6.10
2023-08-24T23:55:00.301Z,6.40
2023-08-24T23:57:27.867Z,6.55
2023-08-24T23:59:55.370Z,6.47
